sensor_id;sensor_type;location;lat;lon;timestamp;P1;durP1;ratioP1;P2;durP2;ratioP2
57441;SDS011;43284;47.042;15.498;2023-05-23T00:00:20;9.40;;;6.05;;
57441;SDS011;43284;47.042;15.498;2023-05-23T00:02:46;8.95;;;6.47;;
57441;SDS011;43284;47.042;15.498;2023-05-23T00:05:12;14.40;;;7.30;;
57441;SDS011;43284;47.042;15.498;2023-05-23T00:07:39;12.88;;;7.05;;
57441;SDS011;43284;47.042;15.498;2023-05-23T00:10:05;12.20;;;6.82;;
57441;SDS011;43284;47.042;15.498;2023-05-23T00:12:31;13.45;;;7.30;;
57441;SDS011;43284;47.042;15.498;2023-05-23T00:14:57;8.93;;;6.35;;
57441;SDS011;43284;47.042;15.498;2023-05-23T00:17:23;12.52;;;7.25;;
57441;SDS011;43284;47.042;15.498;2023-05-23T00:19:51;9.40;;;6.18;;
57441;SDS011;43284;47.042;15.498;2023-05-23T00:22:17;11.32;;;6.95;;
57441;SDS011;43284;47.042;15.498;2023-05-23T00:24:42;14.13;;;7.43;;
57441;SDS011;43284;47.042;15.498;2023-05-23T00:27:08;14.07;;;7.30;;
57441;SDS011;43284;47.042;15.498;2023-05-23T00:29:33;14.38;;;6.38;;
57441;SDS011;43284;47.042;15.498;2023-05-23T00:31:59;11.35;;;7.13;;
57441;SDS011;43284;47.042;15.498;2023-05-23T00:34:24;12.40;;;7.05;;
57441;SDS011;43284;47.042;15.498;2023-05-23T00:36:50;12.68;;;7.20;;
57441;SDS011;43284;47.042;15.498;2023-05-23T00:39:15;12.77;;;7.10;;
57441;SDS011;43284;47.042;15.498;2023-05-23T00:41:47;12.05;;;6.85;;
57441;SDS011;43284;47.042;15.498;2023-05-23T00:44:13;12.30;;;6.80;;
57441;SDS011;43284;47.042;15.498;2023-05-23T00:46:39;11.98;;;7.15;;
57441;SDS011;43284;47.042;15.498;2023-05-23T00:49:10;12.77;;;6.82;;
57441;SDS011;43284;47.042;15.498;2023-05-23T00:51:36;11.52;;;7.25;;
57441;SDS011;43284;47.042;15.498;2023-05-23T00:54:03;11.35;;;6.90;;
57441;SDS011;43284;47.042;15.498;2023-05-23T00:56:30;8.45;;;6.20;;
57441;SDS011;43284;47.042;15.498;2023-05-23T00:58:57;12.60;;;6.63;;
57441;SDS011;43284;47.042;15.498;2023-05-23T01:01:24;11.95;;;6.65;;
57441;SDS011;43284;47.042;15.498;2023-05-23T01:03:51;9.35;;;6.70;;
57441;SDS011;43284;47.042;15.498;2023-05-23T01:06:17;17.90;;;6.63;;
57441;SDS011;43284;47.042;15.498;2023-05-23T01:08:42;12.23;;;7.05;;
57441;SDS011;43284;47.042;15.498;2023-05-23T01:11:30;13.07;;;6.32;;
57441;SDS011;43284;47.042;15.498;2023-05-23T01:14:10;11.50;;;7.15;;
57441;SDS011;43284;47.042;15.498;2023-05-23T01:16:56;9.85;;;6.20;;
57441;SDS011;43284;47.042;15.498;2023-05-23T01:22:20;14.55;;;6.95;;
57441;SDS011;43284;47.042;15.498;2023-05-23T01:25:04;10.02;;;6.63;;
57441;SDS011;43284;47.042;15.498;2023-05-23T01:30:10;11.45;;;7.18;;
57441;SDS011;43284;47.042;15.498;2023-05-23T01:32:38;14.93;;;7.05;;
57441;SDS011;43284;47.042;15.498;2023-05-23T01:35:04;12.05;;;7.22;;
57441;SDS011;43284;47.042;15.498;2023-05-23T01:37:30;10.25;;;6.15;;
57441;SDS011;43284;47.042;15.498;2023-05-23T01:39:56;12.43;;;7.03;;
57441;SDS011;43284;47.042;15.498;2023-05-23T01:42:21;14.88;;;7.40;;
57441;SDS011;43284;47.042;15.498;2023-05-23T01:44:47;14.52;;;6.93;;
57441;SDS011;43284;47.042;15.498;2023-05-23T01:47:13;10.25;;;6.25;;
57441;SDS011;43284;47.042;15.498;2023-05-23T01:49:39;13.82;;;6.88;;
57441;SDS011;43284;47.042;15.498;2023-05-23T01:52:06;9.40;;;6.40;;
57441;SDS011;43284;47.042;15.498;2023-05-23T01:54:33;10.35;;;6.90;;
57441;SDS011;43284;47.042;15.498;2023-05-23T01:57:01;12.02;;;7.88;;
57441;SDS011;43284;47.042;15.498;2023-05-23T01:59:27;12.60;;;6.75;;
57441;SDS011;43284;47.042;15.498;2023-05-23T02:01:53;14.43;;;7.43;;
57441;SDS011;43284;47.042;15.498;2023-05-23T02:04:18;10.65;;;7.13;;
57441;SDS011;43284;47.042;15.498;2023-05-23T02:06:44;12.25;;;6.93;;
57441;SDS011;43284;47.042;15.498;2023-05-23T02:09:10;12.80;;;7.53;;
57441;SDS011;43284;47.042;15.498;2023-05-23T02:11:36;11.38;;;7.22;;
57441;SDS011;43284;47.042;15.498;2023-05-23T02:14:01;19.08;;;9.35;;
57441;SDS011;43284;47.042;15.498;2023-05-23T02:16:27;11.65;;;7.30;;
57441;SDS011;43284;47.042;15.498;2023-05-23T02:18:53;10.43;;;7.13;;
57441;SDS011;43284;47.042;15.498;2023-05-23T02:21:21;10.45;;;7.30;;
57441;SDS011;43284;47.042;15.498;2023-05-23T02:23:47;12.70;;;7.50;;
57441;SDS011;43284;47.042;15.498;2023-05-23T02:26:13;15.15;;;7.55;;
57441;SDS011;43284;47.042;15.498;2023-05-23T02:28:38;19.05;;;8.05;;
57441;SDS011;43284;47.042;15.498;2023-05-23T02:31:04;12.25;;;7.90;;
57441;SDS011;43284;47.042;15.498;2023-05-23T02:33:30;15.10;;;8.05;;
57441;SDS011;43284;47.042;15.498;2023-05-23T02:35:56;13.35;;;7.57;;
57441;SDS011;43284;47.042;15.498;2023-05-23T02:38:21;12.07;;;7.18;;
57441;SDS011;43284;47.042;15.498;2023-05-23T02:40:47;11.20;;;7.00;;
57441;SDS011;43284;47.042;15.498;2023-05-23T02:43:14;12.75;;;7.50;;
57441;SDS011;43284;47.042;15.498;2023-05-23T02:45:39;14.32;;;8.40;;
57441;SDS011;43284;47.042;15.498;2023-05-23T02:48:05;14.45;;;7.55;;
57441;SDS011;43284;47.042;15.498;2023-05-23T02:50:30;11.43;;;7.05;;
57441;SDS011;43284;47.042;15.498;2023-05-23T02:52:56;14.35;;;7.85;;
57441;SDS011;43284;47.042;15.498;2023-05-23T02:55:21;16.65;;;8.68;;
57441;SDS011;43284;47.042;15.498;2023-05-23T02:57:47;12.52;;;7.47;;
57441;SDS011;43284;47.042;15.498;2023-05-23T03:00:12;11.15;;;7.22;;
57441;SDS011;43284;47.042;15.498;2023-05-23T03:02:39;13.30;;;7.43;;
57441;SDS011;43284;47.042;15.498;2023-05-23T03:05:05;12.63;;;7.45;;
57441;SDS011;43284;47.042;15.498;2023-05-23T03:07:31;12.82;;;7.25;;
57441;SDS011;43284;47.042;15.498;2023-05-23T03:09:58;13.98;;;7.53;;
57441;SDS011;43284;47.042;15.498;2023-05-23T03:12:25;13.32;;;7.78;;
57441;SDS011;43284;47.042;15.498;2023-05-23T03:14:54;14.63;;;7.43;;
57441;SDS011;43284;47.042;15.498;2023-05-23T03:17:20;10.55;;;6.45;;
57441;SDS011;43284;47.042;15.498;2023-05-23T03:19:45;13.32;;;7.38;;
57441;SDS011;43284;47.042;15.498;2023-05-23T03:22:11;14.20;;;7.32;;
57441;SDS011;43284;47.042;15.498;2023-05-23T03:24:36;13.45;;;8.27;;
57441;SDS011;43284;47.042;15.498;2023-05-23T03:27:02;15.13;;;7.75;;
57441;SDS011;43284;47.042;15.498;2023-05-23T03:29:28;12.82;;;7.32;;
57441;SDS011;43284;47.042;15.498;2023-05-23T03:31:53;11.65;;;7.80;;
57441;SDS011;43284;47.042;15.498;2023-05-23T03:34:19;15.95;;;7.68;;
57441;SDS011;43284;47.042;15.498;2023-05-23T03:36:44;17.58;;;8.70;;
57441;SDS011;43284;47.042;15.498;2023-05-23T03:39:10;14.98;;;7.80;;
57441;SDS011;43284;47.042;15.498;2023-05-23T03:41:36;14.68;;;8.35;;
57441;SDS011;43284;47.042;15.498;2023-05-23T03:44:01;15.13;;;7.15;;
57441;SDS011;43284;47.042;15.498;2023-05-23T03:46:27;11.75;;;6.60;;
57441;SDS011;43284;47.042;15.498;2023-05-23T03:48:53;14.00;;;8.00;;
57441;SDS011;43284;47.042;15.498;2023-05-23T03:51:18;12.65;;;8.10;;
57441;SDS011;43284;47.042;15.498;2023-05-23T03:53:44;12.32;;;7.22;;
57441;SDS011;43284;47.042;15.498;2023-05-23T03:56:09;14.45;;;7.32;;
57441;SDS011;43284;47.042;15.498;2023-05-23T03:58:35;12.65;;;7.43;;
57441;SDS011;43284;47.042;15.498;2023-05-23T04:01:00;13.77;;;8.00;;
57441;SDS011;43284;47.042;15.498;2023-05-23T04:03:27;15.38;;;8.02;;
57441;SDS011;43284;47.042;15.498;2023-05-23T04:05:56;11.95;;;7.47;;
57441;SDS011;43284;47.042;15.498;2023-05-23T04:08:25;13.38;;;7.60;;
57441;SDS011;43284;47.042;15.498;2023-05-23T04:10:53;13.50;;;7.75;;
57441;SDS011;43284;47.042;15.498;2023-05-23T04:13:18;13.50;;;8.50;;
57441;SDS011;43284;47.042;15.498;2023-05-23T04:15:45;14.07;;;7.63;;
57441;SDS011;43284;47.042;15.498;2023-05-23T04:18:12;12.40;;;7.80;;
57441;SDS011;43284;47.042;15.498;2023-05-23T04:20:39;16.15;;;8.32;;
57441;SDS011;43284;47.042;15.498;2023-05-23T04:23:05;12.45;;;7.53;;
57441;SDS011;43284;47.042;15.498;2023-05-23T04:25:31;16.77;;;7.90;;
57441;SDS011;43284;47.042;15.498;2023-05-23T04:27:58;12.27;;;7.97;;
57441;SDS011;43284;47.042;15.498;2023-05-23T04:30:24;19.95;;;9.05;;
57441;SDS011;43284;47.042;15.498;2023-05-23T04:32:49;15.48;;;8.50;;
57441;SDS011;43284;47.042;15.498;2023-05-23T04:35:15;15.60;;;8.82;;
57441;SDS011;43284;47.042;15.498;2023-05-23T04:37:40;16.85;;;9.77;;
57441;SDS011;43284;47.042;15.498;2023-05-23T04:40:06;17.77;;;9.27;;
57441;SDS011;43284;47.042;15.498;2023-05-23T04:42:33;15.48;;;8.80;;
57441;SDS011;43284;47.042;15.498;2023-05-23T04:44:58;16.13;;;7.88;;
57441;SDS011;43284;47.042;15.498;2023-05-23T04:47:26;14.00;;;8.57;;
57441;SDS011;43284;47.042;15.498;2023-05-23T04:49:53;15.10;;;9.00;;
57441;SDS011;43284;47.042;15.498;2023-05-23T04:52:19;13.90;;;8.82;;
57441;SDS011;43284;47.042;15.498;2023-05-23T04:54:45;16.67;;;9.38;;
57441;SDS011;43284;47.042;15.498;2023-05-23T04:57:13;16.27;;;9.32;;
57441;SDS011;43284;47.042;15.498;2023-05-23T04:59:38;15.32;;;9.02;;
57441;SDS011;43284;47.042;15.498;2023-05-23T05:02:04;15.52;;;9.15;;
57441;SDS011;43284;47.042;15.498;2023-05-23T05:04:30;15.88;;;9.93;;
57441;SDS011;43284;47.042;15.498;2023-05-23T05:06:56;16.77;;;9.73;;
57441;SDS011;43284;47.042;15.498;2023-05-23T05:09:21;18.20;;;9.15;;
57441;SDS011;43284;47.042;15.498;2023-05-23T05:11:47;18.25;;;8.60;;
57441;SDS011;43284;47.042;15.498;2023-05-23T05:14:13;12.77;;;7.90;;
57441;SDS011;43284;47.042;15.498;2023-05-23T05:16:38;17.17;;;8.57;;
57441;SDS011;43284;47.042;15.498;2023-05-23T05:19:04;17.15;;;8.43;;
57441;SDS011;43284;47.042;15.498;2023-05-23T05:21:30;19.25;;;8.68;;
57441;SDS011;43284;47.042;15.498;2023-05-23T05:23:55;22.13;;;9.63;;
57441;SDS011;43284;47.042;15.498;2023-05-23T05:26:21;20.38;;;8.82;;
57441;SDS011;43284;47.042;15.498;2023-05-23T05:28:47;15.32;;;8.45;;
57441;SDS011;43284;47.042;15.498;2023-05-23T05:31:13;15.82;;;8.50;;
57441;SDS011;43284;47.042;15.498;2023-05-23T05:33:39;18.08;;;8.48;;
57441;SDS011;43284;47.042;15.498;2023-05-23T05:36:06;19.85;;;8.18;;
57441;SDS011;43284;47.042;15.498;2023-05-23T05:38:32;15.95;;;8.90;;
57441;SDS011;43284;47.042;15.498;2023-05-23T05:40:57;16.65;;;9.02;;
57441;SDS011;43284;47.042;15.498;2023-05-23T05:43:24;15.07;;;8.90;;
57441;SDS011;43284;47.042;15.498;2023-05-23T05:45:50;20.08;;;9.15;;
57441;SDS011;43284;47.042;15.498;2023-05-23T05:48:15;18.48;;;8.23;;
57441;SDS011;43284;47.042;15.498;2023-05-23T05:50:41;14.20;;;7.30;;
57441;SDS011;43284;47.042;15.498;2023-05-23T05:53:09;14.27;;;8.18;;
57441;SDS011;43284;47.042;15.498;2023-05-23T05:55:36;13.68;;;7.70;;
57441;SDS011;43284;47.042;15.498;2023-05-23T05:58:02;14.85;;;7.95;;
57441;SDS011;43284;47.042;15.498;2023-05-23T06:00:28;14.65;;;8.07;;
57441;SDS011;43284;47.042;15.498;2023-05-23T06:02:54;15.05;;;8.20;;
57441;SDS011;43284;47.042;15.498;2023-05-23T06:05:21;15.68;;;8.30;;
57441;SDS011;43284;47.042;15.498;2023-05-23T06:07:47;15.88;;;8.40;;
57441;SDS011;43284;47.042;15.498;2023-05-23T06:10:16;16.67;;;8.30;;
57441;SDS011;43284;47.042;15.498;2023-05-23T06:12:42;14.80;;;7.65;;
57441;SDS011;43284;47.042;15.498;2023-05-23T06:15:08;15.40;;;8.10;;
57441;SDS011;43284;47.042;15.498;2023-05-23T06:17:34;14.60;;;7.88;;
57441;SDS011;43284;47.042;15.498;2023-05-23T06:19:59;20.23;;;7.28;;
57441;SDS011;43284;47.042;15.498;2023-05-23T06:22:25;13.10;;;8.13;;
57441;SDS011;43284;47.042;15.498;2023-05-23T06:24:50;17.65;;;8.57;;
57441;SDS011;43284;47.042;15.498;2023-05-23T06:27:16;17.40;;;9.70;;
57441;SDS011;43284;47.042;15.498;2023-05-23T06:29:41;17.55;;;8.65;;
57441;SDS011;43284;47.042;15.498;2023-05-23T06:32:07;18.40;;;9.85;;
57441;SDS011;43284;47.042;15.498;2023-05-23T06:34:32;18.85;;;8.52;;
57441;SDS011;43284;47.042;15.498;2023-05-23T06:36:58;24.67;;;8.73;;
57441;SDS011;43284;47.042;15.498;2023-05-23T06:39:23;19.02;;;9.35;;
57441;SDS011;43284;47.042;15.498;2023-05-23T06:41:49;18.13;;;8.75;;
57441;SDS011;43284;47.042;15.498;2023-05-23T06:44:15;20.17;;;9.32;;
57441;SDS011;43284;47.042;15.498;2023-05-23T06:46:47;18.58;;;9.60;;
57441;SDS011;43284;47.042;15.498;2023-05-23T06:49:12;19.30;;;8.55;;
57441;SDS011;43284;47.042;15.498;2023-05-23T06:51:38;20.95;;;9.88;;
57441;SDS011;43284;47.042;15.498;2023-05-23T06:54:04;16.75;;;8.77;;
57441;SDS011;43284;47.042;15.498;2023-05-23T06:56:30;20.17;;;9.85;;
57441;SDS011;43284;47.042;15.498;2023-05-23T06:58:55;24.80;;;9.18;;
57441;SDS011;43284;47.042;15.498;2023-05-23T07:01:21;20.55;;;8.93;;
57441;SDS011;43284;47.042;15.498;2023-05-23T07:03:46;17.88;;;9.48;;
57441;SDS011;43284;47.042;15.498;2023-05-23T07:06:12;17.48;;;8.65;;
57441;SDS011;43284;47.042;15.498;2023-05-23T07:08:38;19.85;;;9.07;;
57441;SDS011;43284;47.042;15.498;2023-05-23T07:11:04;16.83;;;8.93;;
57441;SDS011;43284;47.042;15.498;2023-05-23T07:13:30;17.02;;;8.48;;
57441;SDS011;43284;47.042;15.498;2023-05-23T07:15:56;15.43;;;8.68;;
57441;SDS011;43284;47.042;15.498;2023-05-23T07:18:22;15.68;;;8.52;;
57441;SDS011;43284;47.042;15.498;2023-05-23T07:20:48;15.10;;;8.77;;
57441;SDS011;43284;47.042;15.498;2023-05-23T07:23:14;18.33;;;9.05;;
57441;SDS011;43284;47.042;15.498;2023-05-23T07:25:39;24.73;;;10.23;;
57441;SDS011;43284;47.042;15.498;2023-05-23T07:28:06;16.17;;;9.55;;
57441;SDS011;43284;47.042;15.498;2023-05-23T07:30:32;18.75;;;8.90;;
57441;SDS011;43284;47.042;15.498;2023-05-23T07:32:58;18.65;;;8.63;;
57441;SDS011;43284;47.042;15.498;2023-05-23T07:35:23;20.38;;;9.77;;
57441;SDS011;43284;47.042;15.498;2023-05-23T07:37:50;20.38;;;9.25;;
57441;SDS011;43284;47.042;15.498;2023-05-23T07:40:17;17.70;;;9.25;;
57441;SDS011;43284;47.042;15.498;2023-05-23T07:42:43;19.27;;;9.20;;
57441;SDS011;43284;47.042;15.498;2023-05-23T07:45:09;15.23;;;8.35;;
57441;SDS011;43284;47.042;15.498;2023-05-23T07:47:35;18.00;;;8.32;;
57441;SDS011;43284;47.042;15.498;2023-05-23T07:50:00;17.00;;;8.27;;
57441;SDS011;43284;47.042;15.498;2023-05-23T07:52:27;14.75;;;7.43;;
57441;SDS011;43284;47.042;15.498;2023-05-23T07:54:53;13.57;;;7.57;;
57441;SDS011;43284;47.042;15.498;2023-05-23T07:57:19;14.80;;;7.60;;
57441;SDS011;43284;47.042;15.498;2023-05-23T07:59:45;14.35;;;8.40;;
57441;SDS011;43284;47.042;15.498;2023-05-23T08:02:10;13.30;;;8.48;;
57441;SDS011;43284;47.042;15.498;2023-05-23T08:04:35;14.00;;;7.38;;
57441;SDS011;43284;47.042;15.498;2023-05-23T08:07:01;16.10;;;7.53;;
57441;SDS011;43284;47.042;15.498;2023-05-23T08:09:29;17.08;;;7.78;;
57441;SDS011;43284;47.042;15.498;2023-05-23T08:11:54;23.13;;;7.50;;
57441;SDS011;43284;47.042;15.498;2023-05-23T08:14:20;15.18;;;7.88;;
57441;SDS011;43284;47.042;15.498;2023-05-23T08:16:46;21.08;;;8.10;;
57441;SDS011;43284;47.042;15.498;2023-05-23T08:19:12;19.20;;;7.43;;
57441;SDS011;43284;47.042;15.498;2023-05-23T08:21:37;13.95;;;7.25;;
57441;SDS011;43284;47.042;15.498;2023-05-23T08:24:03;14.20;;;6.97;;
57441;SDS011;43284;47.042;15.498;2023-05-23T08:26:28;12.77;;;7.18;;
57441;SDS011;43284;47.042;15.498;2023-05-23T08:28:59;15.48;;;7.72;;
57441;SDS011;43284;47.042;15.498;2023-05-23T08:31:26;12.32;;;7.25;;
57441;SDS011;43284;47.042;15.498;2023-05-23T08:33:55;17.40;;;6.97;;
57441;SDS011;43284;47.042;15.498;2023-05-23T08:36:21;16.17;;;7.57;;
57441;SDS011;43284;47.042;15.498;2023-05-23T08:38:46;15.88;;;8.05;;
57441;SDS011;43284;47.042;15.498;2023-05-23T08:41:17;16.10;;;7.38;;
57441;SDS011;43284;47.042;15.498;2023-05-23T08:43:45;14.00;;;7.78;;
57441;SDS011;43284;47.042;15.498;2023-05-23T08:46:11;15.52;;;7.00;;
57441;SDS011;43284;47.042;15.498;2023-05-23T08:48:37;13.23;;;7.10;;
57441;SDS011;43284;47.042;15.498;2023-05-23T08:51:03;13.90;;;7.72;;
57441;SDS011;43284;47.042;15.498;2023-05-23T08:53:30;9.98;;;6.35;;
57441;SDS011;43284;47.042;15.498;2023-05-23T08:55:56;12.63;;;7.50;;
57441;SDS011;43284;47.042;15.498;2023-05-23T08:58:28;11.38;;;7.28;;
57441;SDS011;43284;47.042;15.498;2023-05-23T09:00:54;11.18;;;7.15;;
57441;SDS011;43284;47.042;15.498;2023-05-23T09:03:20;15.43;;;7.20;;
57441;SDS011;43284;47.042;15.498;2023-05-23T09:05:47;11.15;;;6.53;;
57441;SDS011;43284;47.042;15.498;2023-05-23T09:08:14;14.27;;;7.10;;
57441;SDS011;43284;47.042;15.498;2023-05-23T09:10:40;14.00;;;6.82;;
57441;SDS011;43284;47.042;15.498;2023-05-23T09:13:06;9.65;;;6.25;;
57441;SDS011;43284;47.042;15.498;2023-05-23T09:15:33;10.70;;;6.50;;
57441;SDS011;43284;47.042;15.498;2023-05-23T09:17:59;14.13;;;6.63;;
57441;SDS011;43284;47.042;15.498;2023-05-23T09:20:28;10.13;;;6.38;;
57441;SDS011;43284;47.042;15.498;2023-05-23T09:22:54;13.50;;;7.13;;
57441;SDS011;43284;47.042;15.498;2023-05-23T09:25:20;13.07;;;6.63;;
57441;SDS011;43284;47.042;15.498;2023-05-23T09:27:46;10.50;;;6.60;;
57441;SDS011;43284;47.042;15.498;2023-05-23T09:30:11;11.50;;;6.95;;
57441;SDS011;43284;47.042;15.498;2023-05-23T09:32:37;10.50;;;6.50;;
57441;SDS011;43284;47.042;15.498;2023-05-23T09:35:04;11.73;;;6.70;;
57441;SDS011;43284;47.042;15.498;2023-05-23T09:37:35;13.98;;;6.57;;
57441;SDS011;43284;47.042;15.498;2023-05-23T09:40:08;10.63;;;6.85;;
57441;SDS011;43284;47.042;15.498;2023-05-23T09:42:40;10.50;;;6.47;;
57441;SDS011;43284;47.042;15.498;2023-05-23T09:45:12;9.55;;;6.28;;
57441;SDS011;43284;47.042;15.498;2023-05-23T09:47:42;11.35;;;6.18;;
57441;SDS011;43284;47.042;15.498;2023-05-23T09:50:13;9.07;;;5.80;;
57441;SDS011;43284;47.042;15.498;2023-05-23T09:52:39;13.68;;;6.82;;
57441;SDS011;43284;47.042;15.498;2023-05-23T09:55:04;15.65;;;6.95;;
57441;SDS011;43284;47.042;15.498;2023-05-23T09:57:30;9.80;;;6.05;;
57441;SDS011;43284;47.042;15.498;2023-05-23T10:00:04;11.25;;;6.45;;
57441;SDS011;43284;47.042;15.498;2023-05-23T10:05:37;10.85;;;6.20;;
57441;SDS011;43284;47.042;15.498;2023-05-23T10:08:09;9.05;;;5.15;;
57441;SDS011;43284;47.042;15.498;2023-05-23T10:11:12;10.68;;;6.20;;
57441;SDS011;43284;47.042;15.498;2023-05-23T10:13:35;10.80;;;6.07;;
57441;SDS011;43284;47.042;15.498;2023-05-23T10:16:04;11.73;;;6.68;;
57441;SDS011;43284;47.042;15.498;2023-05-23T10:19:26;8.68;;;5.78;;
57441;SDS011;43284;47.042;15.498;2023-05-23T10:21:59;8.90;;;6.07;;
57441;SDS011;43284;47.042;15.498;2023-05-23T10:24:27;8.07;;;5.03;;
57441;SDS011;43284;47.042;15.498;2023-05-23T10:26:53;8.25;;;5.03;;
57441;SDS011;43284;47.042;15.498;2023-05-23T10:29:20;8.10;;;5.47;;
57441;SDS011;43284;47.042;15.498;2023-05-23T10:31:47;10.23;;;5.70;;
57441;SDS011;43284;47.042;15.498;2023-05-23T10:36:54;8.20;;;5.45;;
57441;SDS011;43284;47.042;15.498;2023-05-23T10:42:30;6.80;;;5.50;;
57441;SDS011;43284;47.042;15.498;2023-05-23T10:45:16;9.15;;;6.38;;
57441;SDS011;43284;47.042;15.498;2023-05-23T10:47:46;11.75;;;6.20;;
57441;SDS011;43284;47.042;15.498;2023-05-23T10:50:35;13.05;;;6.60;;
57441;SDS011;43284;47.042;15.498;2023-05-23T10:53:01;12.85;;;6.20;;
57441;SDS011;43284;47.042;15.498;2023-05-23T10:55:32;11.02;;;6.28;;
57441;SDS011;43284;47.042;15.498;2023-05-23T11:00:46;9.85;;;5.97;;
57441;SDS011;43284;47.042;15.498;2023-05-23T11:03:16;12.77;;;5.78;;
57441;SDS011;43284;47.042;15.498;2023-05-23T11:05:46;9.80;;;6.32;;
57441;SDS011;43284;47.042;15.498;2023-05-23T11:08:16;9.45;;;6.55;;
57441;SDS011;43284;47.042;15.498;2023-05-23T11:13:19;7.60;;;5.25;;
57441;SDS011;43284;47.042;15.498;2023-05-23T11:15:45;12.25;;;6.10;;
57441;SDS011;43284;47.042;15.498;2023-05-23T11:18:21;10.63;;;5.95;;
57441;SDS011;43284;47.042;15.498;2023-05-23T11:20:50;13.77;;;5.72;;
57441;SDS011;43284;47.042;15.498;2023-05-23T11:23:17;13.52;;;5.78;;
57441;SDS011;43284;47.042;15.498;2023-05-23T11:25:43;11.23;;;6.00;;
57441;SDS011;43284;47.042;15.498;2023-05-23T11:28:12;10.07;;;5.85;;
57441;SDS011;43284;47.042;15.498;2023-05-23T11:30:38;18.13;;;5.75;;
57441;SDS011;43284;47.042;15.498;2023-05-23T11:33:11;12.13;;;5.72;;
57441;SDS011;43284;47.042;15.498;2023-05-23T11:35:38;8.27;;;5.88;;
57441;SDS011;43284;47.042;15.498;2023-05-23T11:38:04;13.15;;;6.30;;
57441;SDS011;43284;47.042;15.498;2023-05-23T11:40:37;17.88;;;6.80;;
57441;SDS011;43284;47.042;15.498;2023-05-23T11:43:07;11.95;;;6.97;;
57441;SDS011;43284;47.042;15.498;2023-05-23T11:45:35;10.80;;;6.68;;
57441;SDS011;43284;47.042;15.498;2023-05-23T11:48:12;16.23;;;6.55;;
57441;SDS011;43284;47.042;15.498;2023-05-23T11:50:49;14.57;;;6.68;;
57441;SDS011;43284;47.042;15.498;2023-05-23T11:53:16;14.88;;;6.13;;
57441;SDS011;43284;47.042;15.498;2023-05-23T11:56:03;9.63;;;5.82;;
57441;SDS011;43284;47.042;15.498;2023-05-23T11:58:29;14.32;;;4.05;;
57441;SDS011;43284;47.042;15.498;2023-05-23T12:01:03;6.13;;;3.22;;
57441;SDS011;43284;47.042;15.498;2023-05-23T12:03:46;8.93;;;4.97;;
57441;SDS011;43284;47.042;15.498;2023-05-23T12:06:17;12.50;;;4.45;;
57441;SDS011;43284;47.042;15.498;2023-05-23T12:08:43;9.40;;;3.97;;
57441;SDS011;43284;47.042;15.498;2023-05-23T12:11:08;11.70;;;3.72;;
57441;SDS011;43284;47.042;15.498;2023-05-23T12:13:35;15.48;;;3.50;;
57441;SDS011;43284;47.042;15.498;2023-05-23T12:16:01;13.00;;;4.88;;
57441;SDS011;43284;47.042;15.498;2023-05-23T12:18:29;24.02;;;7.53;;
57441;SDS011;43284;47.042;15.498;2023-05-23T12:20:59;19.60;;;5.40;;
57441;SDS011;43284;47.042;15.498;2023-05-23T12:23:29;7.93;;;4.10;;
57441;SDS011;43284;47.042;15.498;2023-05-23T12:25:55;6.00;;;4.03;;
57441;SDS011;43284;47.042;15.498;2023-05-23T12:28:33;9.35;;;5.40;;
57441;SDS011;43284;47.042;15.498;2023-05-23T12:31:15;11.45;;;4.90;;
57441;SDS011;43284;47.042;15.498;2023-05-23T12:33:51;13.80;;;5.35;;
57441;SDS011;43284;47.042;15.498;2023-05-23T12:36:21;11.40;;;5.65;;
57441;SDS011;43284;47.042;15.498;2023-05-23T12:38:48;15.52;;;7.57;;
57441;SDS011;43284;47.042;15.498;2023-05-23T12:41:17;19.92;;;6.68;;
57441;SDS011;43284;47.042;15.498;2023-05-23T12:43:53;12.27;;;5.93;;
57441;SDS011;43284;47.042;15.498;2023-05-23T12:46:21;14.85;;;6.47;;
57441;SDS011;43284;47.042;15.498;2023-05-23T12:48:47;10.13;;;6.57;;
57441;SDS011;43284;47.042;15.498;2023-05-23T12:51:13;16.45;;;7.65;;
57441;SDS011;43284;47.042;15.498;2023-05-23T12:53:39;13.35;;;6.68;;
57441;SDS011;43284;47.042;15.498;2023-05-23T12:56:05;15.05;;;7.65;;
57441;SDS011;43284;47.042;15.498;2023-05-23T12:58:31;11.93;;;8.10;;
57441;SDS011;43284;47.042;15.498;2023-05-23T13:00:56;13.40;;;7.45;;
57441;SDS011;43284;47.042;15.498;2023-05-23T13:03:23;16.35;;;7.18;;
57441;SDS011;43284;47.042;15.498;2023-05-23T13:05:49;12.65;;;7.00;;
57441;SDS011;43284;47.042;15.498;2023-05-23T13:08:15;11.35;;;7.25;;
57441;SDS011;43284;47.042;15.498;2023-05-23T13:10:41;14.50;;;7.68;;
57441;SDS011;43284;47.042;15.498;2023-05-23T13:13:07;13.40;;;7.55;;
57441;SDS011;43284;47.042;15.498;2023-05-23T13:15:32;15.85;;;7.40;;
57441;SDS011;43284;47.042;15.498;2023-05-23T13:17:58;11.80;;;7.50;;
57441;SDS011;43284;47.042;15.498;2023-05-23T13:20:24;14.45;;;7.63;;
57441;SDS011;43284;47.042;15.498;2023-05-23T13:22:54;15.70;;;7.45;;
57441;SDS011;43284;47.042;15.498;2023-05-23T13:25:22;15.40;;;7.82;;
57441;SDS011;43284;47.042;15.498;2023-05-23T13:27:49;14.68;;;8.40;;
57441;SDS011;43284;47.042;15.498;2023-05-23T13:30:14;12.55;;;7.38;;
57441;SDS011;43284;47.042;15.498;2023-05-23T13:32:40;19.58;;;8.68;;
57441;SDS011;43284;47.042;15.498;2023-05-23T13:35:06;18.02;;;9.25;;
57441;SDS011;43284;47.042;15.498;2023-05-23T13:37:32;17.08;;;9.38;;
57441;SDS011;43284;47.042;15.498;2023-05-23T13:39:57;19.58;;;9.75;;
57441;SDS011;43284;47.042;15.498;2023-05-23T13:42:25;13.88;;;7.93;;
57441;SDS011;43284;47.042;15.498;2023-05-23T13:44:51;13.60;;;8.05;;
57441;SDS011;43284;47.042;15.498;2023-05-23T13:47:16;13.32;;;7.28;;
57441;SDS011;43284;47.042;15.498;2023-05-23T13:49:42;14.48;;;8.27;;
57441;SDS011;43284;47.042;15.498;2023-05-23T13:52:08;19.08;;;8.82;;
57441;SDS011;43284;47.042;15.498;2023-05-23T13:54:33;14.60;;;8.80;;
57441;SDS011;43284;47.042;15.498;2023-05-23T13:57:00;16.02;;;8.98;;
57441;SDS011;43284;47.042;15.498;2023-05-23T13:59:25;20.08;;;10.60;;
57441;SDS011;43284;47.042;15.498;2023-05-23T14:01:51;26.00;;;12.27;;
57441;SDS011;43284;47.042;15.498;2023-05-23T14:04:17;20.75;;;10.82;;
57441;SDS011;43284;47.042;15.498;2023-05-23T14:06:43;19.70;;;11.10;;
57441;SDS011;43284;47.042;15.498;2023-05-23T14:09:08;20.63;;;11.43;;
57441;SDS011;43284;47.042;15.498;2023-05-23T14:11:34;19.63;;;10.77;;
57441;SDS011;43284;47.042;15.498;2023-05-23T14:13:59;20.38;;;12.27;;
57441;SDS011;43284;47.042;15.498;2023-05-23T14:16:25;23.70;;;12.40;;
57441;SDS011;43284;47.042;15.498;2023-05-23T14:18:50;22.05;;;12.25;;
57441;SDS011;43284;47.042;15.498;2023-05-23T14:21:16;20.38;;;11.95;;
57441;SDS011;43284;47.042;15.498;2023-05-23T14:23:42;28.77;;;14.40;;
57441;SDS011;43284;47.042;15.498;2023-05-23T14:26:07;24.50;;;13.30;;
57441;SDS011;43284;47.042;15.498;2023-05-23T14:28:33;23.42;;;13.60;;
57441;SDS011;43284;47.042;15.498;2023-05-23T14:30:58;26.98;;;14.38;;
57441;SDS011;43284;47.042;15.498;2023-05-23T14:33:24;27.38;;;12.63;;
57441;SDS011;43284;47.042;15.498;2023-05-23T14:35:50;23.88;;;13.43;;
57441;SDS011;43284;47.042;15.498;2023-05-23T14:38:16;25.35;;;14.10;;
57441;SDS011;43284;47.042;15.498;2023-05-23T14:40:41;22.95;;;11.93;;